Wednesday, May 04, 2016
04:08 UTC
  |  Log In   |  Register Free
Airport Search:

Durant Regional - Eaker Field Airport
(KDUA)

Durant Regional - Eaker Field Airport Diagram
No Airport Diagram Available

FAA data valid effective Mar 31 2016 - May 26 2016 (unless otherwise noted).

 
 
 
 
 
 
 
 
 
 
 
 
 
 
Current Aviation Weather for KDUA

Weather Summary


The most recent METAR observation for DUA was updated at: 12:55 UTC
METAR for KDUA is not available. Closest METAR is for KGYI
KDUA  (most recent observation was updatred at 40:35 UTC)
040355Z AUTO 00000KT 10SM CLR 15/10 A3005 RMK AO2

KGYI  (19.5 nm NE)   (most recent observation was updated at 40:35 UTC)
040355Z AUTO 25004KT 10SM CLR 13/09 A3007 RMK AO2 T01330086

KAQR  (30.0 nm SW)   (most recent observation was updated at 40:35 UTC)
040355Z AUTO 00000KT 10SM CLR 12/12 A3006 RMK AO2

TAF for KDUA is not available.
GlobalAir.com is loading additional information.
 Current Weather at DUA
59.0 F° (15.0 C°)

North winds at 0.0 mph
Pressure:
30.05 in
Humidity:
68%
Wind:
North at 0.0 mph
Dew Point:
48.2 F° (9.0 C°)
Visibility:
10.00 mi
DUA NOAA Radar




Find All Airport Services Find A Hotel Find A Rental Car Find A Golf Course Find A Restaurant $100 Hamburger



Airport Weather Forecast for KDUA

Translated METAR for KDUA (0355 UTC)
METAR:
KDUA 040355Z AUTO 00000KT 10SM CLR 15/10 A3005 RMK AO2
Conditions at:
KDUA (Durant Rgnl - Eaker Field, OK) observed 0355 UTC 04 May 2016
Temperature:
15°C (59°F)
Dewpoint:
10°C (50°F) [RH = 72]
Pressure:
30.05 inches Hg (1017.6 mb)
Winds:
from the N (000 degrees) at 0 mph (0 knots: 0 m/s)
Visibility:
10 mile(s)
Ceiling:
at least 12,000 feet AGL
Clouds:
Clear below 12,000 feet AGL
Remarks:
site is un-manned
site is automated and HAS a precipitation sensor

Translated TAF for TAF for DUA is not available. Refer to local area forecast.
FBO's on the Field
FBO Company Facility Photos Services Transportation Aviation Fuel Prices: Prices include tax
Catering Weather Repair Courtesy Rental Type 100LL JetA JetA+ MOGAS 8087
 
D/W Aviation

This FBO has not yet been rated
FS:Avfuel
Last Updated: Apr-29
Login to update fuel prices
SS:
Contact D/W AviationMore FBO Information
 
Add another FBO Facility Photos Catering Weather Repair Courtesy Rental Type 100LL JetA JetA+ MOGAS 8087
Services Transportation Aviation Fuel Prices: Prices include tax


model-print
model-print
model-print
model-print